N98CK KALO-KMSN
Flight info
| Callsign | N98CK |
|---|---|
| Flight time | 0h 47m |
| Altitude | 9000 |
| Route | DCT JAYEX DCT |
| Aircraft | AEST/L-VGD/C |
Departure
| Time | 2026-05-01 13:07 |
|---|---|
| Airport | Waterloo Regional Airport (KALO) |
Arrival
| Time | 2026-05-01 13:55 |
|---|---|
| Airport | Dane County Regional Truax Field (KMSN) |
| Time | Latitude | Longitude | Altitude | Speed | Heading |
|---|---|---|---|---|---|
| 2026-05-01 12:51 | 42.55108 | -92.39578 | 873 ft | 0 kts | 340° |
| 2026-05-01 13:02 | 42.55109 | -92.39579 | 873 ft | 0 kts | 340° |
| 2026-05-01 13:07 | 42.57515 | -92.42574 | 2014 ft | 121 kts | 331° |
| 2026-05-01 13:07 | 42.58310 | -92.42785 | 2446 ft | 118 kts | 7° |
| 2026-05-01 13:07 | 42.59049 | -92.42285 | 2800 ft | 124 kts | 42° |
| 2026-05-01 13:08 | 42.59465 | -92.41239 | 3152 ft | 130 kts | 77° |
| 2026-05-01 13:08 | 42.59440 | -92.40023 | 3577 ft | 129 kts | 99° |
| 2026-05-01 13:08 | 42.59252 | -92.38768 | 3699 ft | 153 kts | 97° |
| 2026-05-01 13:08 | 42.59090 | -92.37223 | 3781 ft | 171 kts | 97° |
| 2026-05-01 13:09 | 42.58926 | -92.35594 | 4017 ft | 176 kts | 96° |
| 2026-05-01 13:09 | 42.58762 | -92.33934 | 4273 ft | 179 kts | 96° |
| 2026-05-01 13:09 | 42.58598 | -92.32262 | 4568 ft | 179 kts | 96° |
| 2026-05-01 13:09 | 42.58437 | -92.30584 | 4847 ft | 179 kts | 96° |
| 2026-05-01 13:10 | 42.58276 | -92.28926 | 5114 ft | 180 kts | 96° |
| 2026-05-01 13:10 | 42.58115 | -92.27240 | 5381 ft | 180 kts | 96° |
| 2026-05-01 13:10 | 42.57989 | -92.25546 | 5603 ft | 182 kts | 85° |
| 2026-05-01 13:10 | 42.58337 | -92.23893 | 5779 ft | 182 kts | 63° |
| 2026-05-01 13:11 | 42.58934 | -92.22373 | 5951 ft | 183 kts | 58° |
| 2026-05-01 13:11 | 42.59552 | -92.20866 | 6145 ft | 182 kts | 58° |
| 2026-05-01 13:11 | 42.60161 | -92.19354 | 6318 ft | 182 kts | 59° |
| 2026-05-01 13:11 | 42.60718 | -92.17819 | 6492 ft | 181 kts | 72° |
| 2026-05-01 13:12 | 42.60817 | -92.16719 | 6700 ft | 174 kts | 83° |
| 2026-05-01 13:12 | 42.61006 | -92.15115 | 6949 ft | 171 kts | 75° |
| 2026-05-01 13:12 | 42.61297 | -92.13550 | 7131 ft | 170 kts | 72° |
| 2026-05-01 13:12 | 42.61614 | -92.12002 | 7306 ft | 170 kts | 71° |
| 2026-05-01 13:13 | 42.61929 | -92.10474 | 7516 ft | 167 kts | 71° |
| 2026-05-01 13:13 | 42.62236 | -92.08974 | 7716 ft | 163 kts | 71° |
| 2026-05-01 13:13 | 42.62536 | -92.07496 | 7906 ft | 161 kts | 71° |
| 2026-05-01 13:13 | 42.62832 | -92.06042 | 8078 ft | 159 kts | 71° |
| 2026-05-01 13:14 | 42.63123 | -92.04609 | 8235 ft | 157 kts | 71° |
| 2026-05-01 13:14 | 42.63412 | -92.03184 | 8383 ft | 155 kts | 70° |
| 2026-05-01 13:14 | 42.63693 | -92.01804 | 8541 ft | 151 kts | 70° |
| 2026-05-01 13:14 | 42.63969 | -92.00442 | 8685 ft | 149 kts | 70° |
| 2026-05-01 13:15 | 42.64242 | -91.99100 | 8803 ft | 146 kts | 70° |
| 2026-05-01 13:15 | 42.64509 | -91.97780 | 8915 ft | 143 kts | 70° |
| 2026-05-01 13:15 | 42.64771 | -91.96492 | 9016 ft | 140 kts | 69° |
| 2026-05-01 13:15 | 42.65032 | -91.95203 | 9028 ft | 143 kts | 69° |
| 2026-05-01 13:16 | 42.65302 | -91.93879 | 9016 ft | 147 kts | 70° |
| 2026-05-01 13:16 | 42.65573 | -91.92529 | 9011 ft | 150 kts | 70° |
| 2026-05-01 13:16 | 42.65850 | -91.91155 | 9008 ft | 151 kts | 70° |
| 2026-05-01 13:17 | 42.66709 | -91.86900 | 9010 ft | 162 kts | 70° |
| 2026-05-01 13:17 | 42.67007 | -91.85417 | 9005 ft | 163 kts | 70° |
| 2026-05-01 13:18 | 42.67601 | -91.82455 | 9002 ft | 161 kts | 70° |
| 2026-05-01 13:18 | 42.67896 | -91.80991 | 8998 ft | 160 kts | 70° |
| 2026-05-01 13:18 | 42.68186 | -91.79548 | 9001 ft | 157 kts | 70° |
| 2026-05-01 13:18 | 42.68478 | -91.78097 | 8867 ft | 166 kts | 70° |
| 2026-05-01 13:19 | 42.68804 | -91.76491 | 8408 ft | 189 kts | 71° |
| 2026-05-01 13:19 | 42.69162 | -91.74699 | 7973 ft | 203 kts | 72° |
| 2026-05-01 13:19 | 42.69932 | -91.70828 | 7142 ft | 219 kts | 72° |
| 2026-05-01 13:20 | 42.70334 | -91.68810 | 6739 ft | 223 kts | 72° |
| 2026-05-01 13:20 | 42.70744 | -91.66760 | 6327 ft | 226 kts | 72° |
| 2026-05-01 13:20 | 42.71153 | -91.64711 | 6011 ft | 223 kts | 73° |
| 2026-05-01 13:21 | 42.71917 | -91.60855 | 5991 ft | 198 kts | 72° |
| 2026-05-01 13:21 | 42.72266 | -91.59093 | 6004 ft | 189 kts | 72° |
| 2026-05-01 13:21 | 42.72605 | -91.57394 | 5998 ft | 184 kts | 72° |
| 2026-05-01 13:21 | 42.72936 | -91.55735 | 6016 ft | 180 kts | 72° |
| 2026-05-01 13:22 | 42.73260 | -91.54104 | 5999 ft | 177 kts | 72° |
| 2026-05-01 13:22 | 42.73576 | -91.52509 | 6009 ft | 173 kts | 72° |
| 2026-05-01 13:22 | 42.73887 | -91.50940 | 6007 ft | 170 kts | 72° |
| 2026-05-01 13:22 | 42.74193 | -91.49390 | 6004 ft | 169 kts | 72° |
| 2026-05-01 13:23 | 42.74496 | -91.47856 | 5994 ft | 168 kts | 71° |
| 2026-05-01 13:23 | 42.74819 | -91.46239 | 5644 ft | 186 kts | 72° |
| 2026-05-01 13:23 | 42.75169 | -91.44471 | 5253 ft | 199 kts | 72° |
| 2026-05-01 13:23 | 42.75532 | -91.42622 | 4887 ft | 209 kts | 73° |
| 2026-05-01 13:24 | 42.75912 | -91.40680 | 4502 ft | 215 kts | 73° |
| 2026-05-01 13:24 | 42.76303 | -91.38698 | 4123 ft | 219 kts | 73° |
| 2026-05-01 13:24 | 42.76701 | -91.36677 | 3733 ft | 223 kts | 73° |
| 2026-05-01 13:25 | 42.77506 | -91.32575 | 2993 ft | 226 kts | 74° |
| 2026-05-01 13:25 | 42.77899 | -91.30570 | 2980 ft | 212 kts | 74° |
| 2026-05-01 13:25 | 42.78268 | -91.28673 | 3009 ft | 203 kts | 74° |
| 2026-05-01 13:25 | 42.78624 | -91.26839 | 3017 ft | 197 kts | 74° |
| 2026-05-01 13:26 | 42.78975 | -91.25046 | 2993 ft | 195 kts | 74° |
| 2026-05-01 13:26 | 42.79322 | -91.23288 | 3015 ft | 190 kts | 74° |
| 2026-05-01 13:26 | 42.79660 | -91.21548 | 3002 ft | 190 kts | 74° |
| 2026-05-01 13:26 | 42.79995 | -91.19833 | 3004 ft | 189 kts | 74° |
| 2026-05-01 13:27 | 42.80331 | -91.18108 | 3016 ft | 188 kts | 74° |
| 2026-05-01 13:27 | 42.80670 | -91.16380 | 3024 ft | 189 kts | 74° |
| 2026-05-01 13:27 | 42.81352 | -91.12866 | 3011 ft | 194 kts | 74° |
| 2026-05-01 13:28 | 42.82038 | -91.09307 | 3012 ft | 194 kts | 74° |
| 2026-05-01 13:28 | 42.82384 | -91.07528 | 3014 ft | 195 kts | 74° |
| 2026-05-01 13:29 | 42.83080 | -91.03923 | 2995 ft | 200 kts | 74° |
| 2026-05-01 13:29 | 42.83787 | -91.00263 | 3008 ft | 200 kts | 74° |
| 2026-05-01 13:30 | 42.85215 | -90.92867 | 3001 ft | 207 kts | 75° |
| 2026-05-01 13:31 | 42.85943 | -90.89047 | 3003 ft | 211 kts | 74° |
| 2026-05-01 13:31 | 42.87066 | -90.83209 | 3012 ft | 213 kts | 75° |
| 2026-05-01 13:32 | 42.87808 | -90.79281 | 3010 ft | 214 kts | 75° |
| 2026-05-01 13:33 | 42.88941 | -90.73353 | 2994 ft | 217 kts | 74° |
| 2026-05-01 13:33 | 42.89698 | -90.69370 | 3014 ft | 217 kts | 74° |
| 2026-05-01 13:34 | 42.90456 | -90.65371 | 3008 ft | 219 kts | 74° |
| 2026-05-01 13:34 | 42.91210 | -90.61372 | 3018 ft | 217 kts | 74° |
| 2026-05-01 13:35 | 42.91970 | -90.57381 | 3003 ft | 216 kts | 74° |
| 2026-05-01 13:35 | 42.92339 | -90.55390 | 3014 ft | 217 kts | 74° |
| 2026-05-01 13:35 | 42.93085 | -90.51422 | 3004 ft | 218 kts | 74° |
| 2026-05-01 13:36 | 42.93461 | -90.49423 | 3003 ft | 217 kts | 73° |
| 2026-05-01 13:36 | 42.93844 | -90.47427 | 3003 ft | 217 kts | 74° |
| 2026-05-01 13:36 | 42.94582 | -90.43436 | 3005 ft | 216 kts | 73° |
| 2026-05-01 13:37 | 42.94960 | -90.41452 | 3002 ft | 216 kts | 73° |
| 2026-05-01 13:37 | 42.95329 | -90.39466 | 3013 ft | 216 kts | 74° |
| 2026-05-01 13:37 | 42.95699 | -90.37472 | 2981 ft | 216 kts | 73° |
| 2026-05-01 13:37 | 42.96071 | -90.35492 | 3006 ft | 215 kts | 73° |
| 2026-05-01 13:38 | 42.96801 | -90.31569 | 2999 ft | 208 kts | 73° |
| 2026-05-01 13:38 | 42.97153 | -90.29679 | 3020 ft | 203 kts | 73° |
| 2026-05-01 13:38 | 42.97504 | -90.27814 | 3001 ft | 200 kts | 73° |
| 2026-05-01 13:39 | 42.97840 | -90.25980 | 3014 ft | 199 kts | 73° |
| 2026-05-01 13:39 | 42.98175 | -90.24174 | 2997 ft | 197 kts | 73° |
| 2026-05-01 13:39 | 42.98508 | -90.22373 | 3007 ft | 194 kts | 73° |
| 2026-05-01 13:39 | 42.98611 | -90.20556 | 3023 ft | 193 kts | 98° |
| 2026-05-01 13:40 | 42.98260 | -90.18776 | 3022 ft | 195 kts | 100° |
| 2026-05-01 13:40 | 42.98335 | -90.16952 | 3024 ft | 193 kts | 67° |
| 2026-05-01 13:40 | 42.99053 | -90.15414 | 3002 ft | 192 kts | 46° |
| 2026-05-01 13:40 | 42.99841 | -90.13972 | 2987 ft | 190 kts | 64° |
| 2026-05-01 13:41 | 43.00011 | -90.12217 | 3016 ft | 189 kts | 95° |
| 2026-05-01 13:41 | 42.99794 | -90.10425 | 3012 ft | 192 kts | 92° |
| 2026-05-01 13:41 | 42.99752 | -90.08604 | 3015 ft | 191 kts | 86° |
| 2026-05-01 13:41 | 42.99785 | -90.06782 | 3003 ft | 192 kts | 85° |
| 2026-05-01 13:42 | 42.99824 | -90.04958 | 3002 ft | 192 kts | 85° |
| 2026-05-01 13:42 | 42.99857 | -90.03139 | 3008 ft | 192 kts | 85° |
| 2026-05-01 13:42 | 42.99892 | -90.01309 | 3010 ft | 195 kts | 85° |
| 2026-05-01 13:42 | 42.99921 | -89.99424 | 3006 ft | 203 kts | 86° |
| 2026-05-01 13:43 | 42.99951 | -89.97458 | 3006 ft | 209 kts | 85° |
| 2026-05-01 13:43 | 42.99985 | -89.95455 | 2999 ft | 212 kts | 85° |
| 2026-05-01 13:43 | 43.00017 | -89.93432 | 3023 ft | 213 kts | 86° |
| 2026-05-01 13:43 | 43.00049 | -89.91431 | 3011 ft | 214 kts | 86° |
| 2026-05-01 13:44 | 43.00079 | -89.89395 | 2992 ft | 216 kts | 86° |
| 2026-05-01 13:44 | 43.00113 | -89.87352 | 3012 ft | 215 kts | 85° |
| 2026-05-01 13:44 | 43.00143 | -89.85310 | 3005 ft | 215 kts | 86° |
| 2026-05-01 13:44 | 43.00174 | -89.83268 | 3005 ft | 214 kts | 86° |
| 2026-05-01 13:45 | 43.00205 | -89.81225 | 2993 ft | 215 kts | 86° |
| 2026-05-01 13:45 | 43.00232 | -89.79184 | 3003 ft | 214 kts | 86° |
| 2026-05-01 13:45 | 43.00258 | -89.77145 | 3007 ft | 216 kts | 85° |
| 2026-05-01 13:45 | 43.00295 | -89.75088 | 3002 ft | 217 kts | 85° |
| 2026-05-01 13:46 | 43.00328 | -89.73029 | 3000 ft | 217 kts | 85° |
| 2026-05-01 13:46 | 43.00350 | -89.70971 | 3005 ft | 216 kts | 86° |
| 2026-05-01 13:46 | 43.00373 | -89.68914 | 3004 ft | 217 kts | 85° |
| 2026-05-01 13:46 | 43.00409 | -89.66852 | 2989 ft | 218 kts | 86° |
| 2026-05-01 13:47 | 43.00439 | -89.64778 | 2978 ft | 218 kts | 86° |
| 2026-05-01 13:47 | 43.00462 | -89.62749 | 2996 ft | 217 kts | 85° |
| 2026-05-01 13:47 | 43.00496 | -89.60681 | 2996 ft | 219 kts | 86° |
| 2026-05-01 13:47 | 43.00513 | -89.58603 | 2981 ft | 218 kts | 86° |
| 2026-05-01 13:48 | 43.00543 | -89.56542 | 2990 ft | 217 kts | 85° |
| 2026-05-01 13:48 | 43.00578 | -89.54479 | 2993 ft | 217 kts | 86° |
| 2026-05-01 13:48 | 43.00596 | -89.52419 | 2989 ft | 217 kts | 86° |
| 2026-05-01 13:48 | 43.00624 | -89.50358 | 2971 ft | 217 kts | 86° |
| 2026-05-01 13:49 | 43.00647 | -89.48298 | 2986 ft | 216 kts | 86° |
| 2026-05-01 13:49 | 43.00665 | -89.46349 | 2977 ft | 187 kts | 85° |
| 2026-05-01 13:49 | 43.00676 | -89.44712 | 2776 ft | 162 kts | 85° |
| 2026-05-01 13:49 | 43.00693 | -89.43267 | 2566 ft | 136 kts | 84° |
| 2026-05-01 13:50 | 43.00714 | -89.42048 | 2646 ft | 130 kts | 83° |
| 2026-05-01 13:50 | 43.00737 | -89.40751 | 2717 ft | 143 kts | 83° |
| 2026-05-01 13:50 | 43.00759 | -89.39346 | 2706 ft | 156 kts | 84° |
| 2026-05-01 13:50 | 43.00780 | -89.37798 | 2685 ft | 168 kts | 83° |
| 2026-05-01 13:51 | 43.01126 | -89.36268 | 2688 ft | 172 kts | 54° |
| 2026-05-01 13:51 | 43.01969 | -89.35123 | 2687 ft | 172 kts | 28° |
| 2026-05-01 13:51 | 43.03098 | -89.34650 | 2691 ft | 171 kts | 2° |
| 2026-05-01 13:51 | 43.04277 | -89.34620 | 2677 ft | 163 kts | 359° |
| 2026-05-01 13:52 | 43.05320 | -89.34554 | 2582 ft | 138 kts | 2° |
| 2026-05-01 13:52 | 43.06243 | -89.34518 | 2241 ft | 125 kts | 2° |
| 2026-05-01 13:52 | 43.07047 | -89.34477 | 2014 ft | 104 kts | 2° |
| 2026-05-01 13:52 | 43.07706 | -89.34443 | 1960 ft | 97 kts | 1° |
| 2026-05-01 13:53 | 43.08416 | -89.34408 | 1780 ft | 106 kts | 1° |
| 2026-05-01 13:53 | 43.09804 | -89.34344 | 1464 ft | 98 kts | 1° |
| 2026-05-01 13:53 | 43.10501 | -89.34310 | 1365 ft | 102 kts | 1° |
| 2026-05-01 13:54 | 43.11240 | -89.34275 | 1173 ft | 108 kts | 1° |
| 2026-05-01 13:54 | 43.11959 | -89.34243 | 1045 ft | 99 kts | 1° |
| 2026-05-01 13:54 | 43.12625 | -89.34207 | 926 ft | 93 kts | 2° |
| 2026-05-01 13:54 | 43.13233 | -89.34181 | 871 ft | 74 kts | 3° |
| 2026-05-01 13:55 | 43.13631 | -89.34160 | 863 ft | 46 kts | 2° |
| 2026-05-01 13:55 | 43.13897 | -89.34154 | 863 ft | 32 kts | 1° |
| 2026-05-01 13:55 | 43.14036 | -89.34110 | 861 ft | 17 kts | 52° |
| 2026-05-01 13:55 | 43.14047 | -89.33931 | 863 ft | 21 kts | 91° |
| 2026-05-01 13:56 | 43.14042 | -89.33740 | 866 ft | 19 kts | 90° |
| 2026-05-01 13:56 | 43.14041 | -89.33535 | 864 ft | 24 kts | 92° |
| 2026-05-01 13:56 | 43.14037 | -89.33301 | 866 ft | 24 kts | 90° |
| 2026-05-01 13:56 | 43.14067 | -89.33126 | 868 ft | 17 kts | 47° |
| 2026-05-01 13:57 | 43.14062 | -89.33001 | 866 ft | 15 kts | 135° |
| 2026-05-01 13:57 | 43.14034 | -89.32924 | 867 ft | 13 kts | 91° |
| 2026-05-01 13:57 | 43.14062 | -89.32827 | 867 ft | 7 kts | 7° |
| 2026-05-01 13:57 | 43.14088 | -89.32825 | 867 ft | 0 kts | 1° |